Time;durP1;ratioP1;P1;durP2;ratioP2;P2;SDS_P1;SDS_P2;PMS_P1;PMS_P2;Temp;Humidity;BMP_temperature;BMP_pressure;BME280_temperature;BME280_humidity;BME280_pressure;Samples;Min_cycle;Max_cycle;Signal;HPM_P1;HPM_P2
2023/10/31 00:01:03;;;;;;;64.50;34.08;;;;;;;;;;5023443;28;20776;-72
2023/10/31 00:03:28;;;;;;;62.15;34.92;;;;;;;;;;5008297;28;20281;-73
2023/10/31 00:05:54;;;;;;;61.80;33.58;;;;;;;;;;5027581;28;20709;-72
2023/10/31 00:08:19;;;;;;;57.55;32.95;;;;;;;;;;5030188;28;20185;-73
2023/10/31 00:10:46;;;;;;;53.40;30.98;;;;;;;;;;5023864;28;20194;-73
2023/10/31 00:13:11;;;;;;;56.90;33.60;;;;;;;;;;5027460;28;20205;-72
2023/10/31 00:15:37;;;;;;;61.28;32.00;;;;;;;;;;5025354;28;20222;-72
2023/10/31 00:18:03;;;;;;;54.28;32.58;;;;;;;;;;5029617;28;20242;-73
2023/10/31 00:20:29;;;;;;;66.20;33.83;;;;;;;;;;5018345;28;20289;-73
2023/10/31 00:22:54;;;;;;;58.35;31.67;;;;;;;;;;5016611;28;20191;-75
2023/10/31 00:25:20;;;;;;;60.58;30.55;;;;;;;;;;5029201;28;20273;-74
2023/10/31 00:27:45;;;;;;;55.63;30.38;;;;;;;;;;5028968;28;20656;-74
2023/10/31 00:30:11;;;;;;;47.83;28.52;;;;;;;;;;5034270;28;20320;-73
2023/10/31 00:32:36;;;;;;;46.90;27.90;;;;;;;;;;5045400;28;20583;-73
2023/10/31 00:35:01;;;;;;;51.95;28.23;;;;;;;;;;5007766;28;20190;-73
2023/10/31 00:37:27;;;;;;;48.63;27.42;;;;;;;;;;5045311;28;20615;-73
2023/10/31 00:39:52;;;;;;;47.35;26.95;;;;;;;;;;5040780;28;20532;-73
2023/10/31 00:42:18;;;;;;;42.17;26.23;;;;;;;;;;5029031;28;20216;-73
2023/10/31 00:44:43;;;;;;;41.78;25.67;;;;;;;;;;5016384;28;20614;-73
2023/10/31 00:47:09;;;;;;;43.35;26.83;;;;;;;;;;5027793;28;20225;-73
2023/10/31 00:49:35;;;;;;;42.15;25.25;;;;;;;;;;5038917;28;20755;-74
2023/10/31 00:52:00;;;;;;;34.03;22.92;;;;;;;;;;5021355;28;20272;-74
2023/10/31 00:54:26;;;;;;;36.00;24.65;;;;;;;;;;5031049;28;20274;-74
2023/10/31 00:56:51;;;;;;;37.90;24.58;;;;;;;;;;5044269;28;20602;-73
2023/10/31 00:59:16;;;;;;;40.95;24.80;;;;;;;;;;5014232;28;20665;-75
2023/10/31 01:01:43;;;;;;;32.90;22.20;;;;;;;;;;5021260;28;20194;-75
2023/10/31 01:04:08;;;;;;;34.70;21.88;;;;;;;;;;5029154;28;20554;-74
2023/10/31 01:06:40;;;;;;;29.92;19.80;;;;;;;;;;5039395;28;20213;-74
2023/10/31 01:09:06;;;;;;;34.22;20.77;;;;;;;;;;5027304;28;20182;-74
2023/10/31 01:11:31;;;;;;;24.83;14.88;;;;;;;;;;5023478;28;20209;-73
2023/10/31 01:13:56;;;;;;;15.32;8.80;;;;;;;;;;5028564;28;20201;-72
2023/10/31 01:16:22;;;;;;;7.80;4.38;;;;;;;;;;5029839;28;20679;-72
2023/10/31 01:18:47;;;;;;;2.50;1.90;;;;;;;;;;5028418;28;20198;-72
2023/10/31 01:21:13;;;;;;;1.67;1.40;;;;;;;;;;5027573;28;20193;-71
2023/10/31 01:23:38;;;;;;;2.38;1.10;;;;;;;;;;5026666;28;20260;-71
2023/10/31 01:26:03;;;;;;;1.05;0.90;;;;;;;;;;5039286;28;20372;-70
2023/10/31 01:28:29;;;;;;;2.05;1.45;;;;;;;;;;5041255;28;20612;-71
2023/10/31 01:30:54;;;;;;;1.58;0.88;;;;;;;;;;5045198;28;20194;-72
2023/10/31 01:33:20;;;;;;;3.25;1.02;;;;;;;;;;5020559;28;20225;-71
2023/10/31 01:35:45;;;;;;;1.48;1.00;;;;;;;;;;5025335;28;20642;-71
2023/10/31 01:38:11;;;;;;;1.60;1.20;;;;;;;;;;5029705;28;20199;-71
2023/10/31 01:40:36;;;;;;;1.15;1.02;;;;;;;;;;5031334;28;20218;-72
2023/10/31 01:43:01;;;;;;;3.08;1.00;;;;;;;;;;5030314;28;20678;-71
2023/10/31 01:45:27;;;;;;;2.00;1.15;;;;;;;;;;5025516;28;20528;-70
2023/10/31 01:47:52;;;;;;;2.03;0.88;;;;;;;;;;5025728;28;20264;-71
2023/10/31 01:50:18;;;;;;;3.25;1.10;;;;;;;;;;5030487;28;20530;-69
2023/10/31 01:52:44;;;;;;;2.42;1.00;;;;;;;;;;5026172;28;20202;-70
2023/10/31 01:55:10;;;;;;;4.45;0.85;;;;;;;;;;5018147;28;20226;-71
2023/10/31 01:57:36;;;;;;;1.50;0.40;;;;;;;;;;5020747;28;20186;-69
2023/10/31 02:00:01;;;;;;;2.97;0.75;;;;;;;;;;5033848;28;20548;-69
2023/10/31 02:02:28;;;;;;;2.35;0.73;;;;;;;;;;5026096;28;20264;-68
2023/10/31 02:04:53;;;;;;;6.65;1.00;;;;;;;;;;5009407;28;20501;-68
2023/10/31 02:07:19;;;;;;;3.35;0.70;;;;;;;;;;5028829;28;20289;-70
2023/10/31 02:09:44;;;;;;;3.58;0.60;;;;;;;;;;5032120;28;20202;-69
2023/10/31 02:12:09;;;;;;;3.10;0.80;;;;;;;;;;5027502;28;20186;-68
2023/10/31 02:14:35;;;;;;;3.00;0.60;;;;;;;;;;5042663;28;20241;-68
2023/10/31 02:17:00;;;;;;;7.28;1.02;;;;;;;;;;5032809;28;20238;-69
2023/10/31 02:19:26;;;;;;;5.70;0.77;;;;;;;;;;5024575;28;20619;-68
2023/10/31 02:21:52;;;;;;;2.58;0.95;;;;;;;;;;5011817;28;20201;-70
2023/10/31 02:24:17;;;;;;;2.95;0.57;;;;;;;;;;5044845;28;20190;-69
2023/10/31 02:26:42;;;;;;;3.25;0.63;;;;;;;;;;5036778;28;20218;-68
2023/10/31 02:29:08;;;;;;;4.40;0.95;;;;;;;;;;5031395;28;20644;-69
2023/10/31 02:31:33;;;;;;;6.53;0.80;;;;;;;;;;5028336;28;20199;-68
2023/10/31 02:33:59;;;;;;;3.65;1.20;;;;;;;;;;5028788;28;20248;-68
2023/10/31 02:36:24;;;;;;;3.78;1.00;;;;;;;;;;5032285;28;20273;-68
2023/10/31 02:38:50;;;;;;;2.75;1.20;;;;;;;;;;5030507;28;20198;-69
2023/10/31 02:41:15;;;;;;;4.30;1.50;;;;;;;;;;5027470;28;20189;-68
2023/10/31 02:43:41;;;;;;;4.30;1.60;;;;;;;;;;5022139;28;20190;-68
2023/10/31 02:46:07;;;;;;;9.27;2.10;;;;;;;;;;5030708;28;20676;-68
2023/10/31 02:48:38;;;;;;;5.75;2.10;;;;;;;;;;5027813;28;20222;-68
2023/10/31 02:51:07;;;;;;;7.50;2.22;;;;;;;;;;5026243;28;20194;-68
2023/10/31 02:53:33;;;;;;;9.23;2.45;;;;;;;;;;5023156;28;20194;-69
2023/10/31 02:55:58;;;;;;;10.60;2.20;;;;;;;;;;5036215;28;20566;-69
2023/10/31 02:58:24;;;;;;;10.07;2.30;;;;;;;;;;5021443;28;20202;-69
2023/10/31 03:00:49;;;;;;;7.32;2.53;;;;;;;;;;5031299;28;20315;-70
2023/10/31 03:03:15;;;;;;;8.73;2.45;;;;;;;;;;5021218;28;20190;-69
2023/10/31 03:05:40;;;;;;;7.28;2.17;;;;;;;;;;5030576;28;20677;-68
2023/10/31 03:08:08;;;;;;;8.50;2.45;;;;;;;;;;5031389;28;20524;-69
2023/10/31 03:10:33;;;;;;;7.07;2.25;;;;;;;;;;5020828;28;20219;-69
2023/10/31 03:12:59;;;;;;;6.18;2.58;;;;;;;;;;5018587;28;20218;-68
2023/10/31 03:15:24;;;;;;;9.65;2.25;;;;;;;;;;5029564;28;20656;-69
2023/10/31 03:17:50;;;;;;;5.60;2.55;;;;;;;;;;5031545;28;20194;-69
2023/10/31 03:20:15;;;;;;;7.28;2.60;;;;;;;;;;5030157;28;20213;-70
2023/10/31 03:22:40;;;;;;;9.07;2.47;;;;;;;;;;5037505;28;20194;-69
2023/10/31 03:25:06;;;;;;;11.10;4.25;;;;;;;;;;5034509;28;20274;-71
2023/10/31 03:27:31;;;;;;;12.23;3.25;;;;;;;;;;5027214;28;20210;-71
2023/10/31 03:29:57;;;;;;;7.05;3.58;;;;;;;;;;5027217;28;20194;-70
2023/10/31 03:32:22;;;;;;;8.75;4.85;;;;;;;;;;5025134;28;20264;-70
2023/10/31 03:34:48;;;;;;;15.32;5.65;;;;;;;;;;5021876;28;20206;-70
2023/10/31 03:37:13;;;;;;;10.70;5.45;;;;;;;;;;5020372;28;20186;-72
2023/10/31 03:39:38;;;;;;;11.25;5.65;;;;;;;;;;5029144;28;20205;-70
2023/10/31 03:42:05;;;;;;;14.75;6.38;;;;;;;;;;5021446;28;20669;-70
2023/10/31 03:44:30;;;;;;;16.20;7.78;;;;;;;;;;5013800;28;20248;-70
2023/10/31 03:46:56;;;;;;;15.13;7.72;;;;;;;;;;5023981;28;20637;-70
2023/10/31 03:49:21;;;;;;;14.55;8.80;;;;;;;;;;5018242;28;20213;-69
2023/10/31 03:51:46;;;;;;;17.38;8.88;;;;;;;;;;5029014;28;20213;-71
2023/10/31 03:54:12;;;;;;;14.50;8.63;;;;;;;;;;5017129;28;20186;-69
2023/10/31 03:56:42;;;;;;;17.45;10.13;;;;;;;;;;5023287;28;20183;-70
2023/10/31 03:59:07;;;;;;;18.23;10.27;;;;;;;;;;5024288;28;20556;-70
2023/10/31 04:01:33;;;;;;;18.50;11.02;;;;;;;;;;5017333;28;20191;-71
2023/10/31 04:03:58;;;;;;;22.65;12.20;;;;;;;;;;5022924;28;20304;-71
2023/10/31 04:06:23;;;;;;;21.15;12.77;;;;;;;;;;5025681;28;20613;-72
2023/10/31 04:08:49;;;;;;;21.38;13.45;;;;;;;;;;5018363;28;20198;-71
2023/10/31 04:11:14;;;;;;;22.92;13.25;;;;;;;;;;5017491;28;20194;-72
2023/10/31 04:13:39;;;;;;;19.30;12.25;;;;;;;;;;5023704;28;20548;-71
2023/10/31 04:16:05;;;;;;;17.70;12.55;;;;;;;;;;5021041;28;20238;-71
2023/10/31 04:18:31;;;;;;;21.38;13.70;;;;;;;;;;5019529;28;20192;-72
2023/10/31 04:20:56;;;;;;;19.50;13.07;;;;;;;;;;5028942;28;20213;-72
2023/10/31 04:23:21;;;;;;;23.45;13.38;;;;;;;;;;5029507;28;20229;-74
2023/10/31 04:25:47;;;;;;;20.33;13.27;;;;;;;;;;5030627;28;20206;-73
2023/10/31 04:28:14;;;;;;;22.13;12.18;;;;;;;;;;5018613;28;20195;-72
2023/10/31 04:30:40;;;;;;;21.98;13.63;;;;;;;;;;5015763;28;20205;-73
2023/10/31 04:33:05;;;;;;;18.77;12.50;;;;;;;;;;5021954;28;20229;-74
2023/10/31 04:35:30;;;;;;;22.67;13.20;;;;;;;;;;5019386;28;20219;-74
2023/10/31 04:37:56;;;;;;;18.13;11.88;;;;;;;;;;5035234;28;20254;-74
2023/10/31 04:40:22;;;;;;;19.90;12.40;;;;;;;;;;5036105;28;20186;-74
2023/10/31 04:42:48;;;;;;;18.27;11.63;;;;;;;;;;5042005;28;20568;-74
2023/10/31 04:45:13;;;;;;;17.80;11.20;;;;;;;;;;5017208;28;20190;-73
2023/10/31 04:47:39;;;;;;;16.27;10.63;;;;;;;;;;5024682;28;20240;-73
2023/10/31 04:50:04;;;;;;;16.45;11.02;;;;;;;;;;5018748;28;20252;-72
2023/10/31 04:52:30;;;;;;;14.95;10.90;;;;;;;;;;5024168;28;20186;-72
2023/10/31 04:54:55;;;;;;;15.45;10.18;;;;;;;;;;5020932;28;20285;-73
2023/10/31 04:57:20;;;;;;;17.35;11.23;;;;;;;;;;5019104;28;20201;-73
2023/10/31 04:59:46;;;;;;;17.45;11.20;;;;;;;;;;5035012;28;20272;-74
2023/10/31 05:02:11;;;;;;;18.27;10.88;;;;;;;;;;5022437;28;20210;-74
2023/10/31 05:04:39;;;;;;;18.15;11.25;;;;;;;;;;5023604;28;20194;-74
2023/10/31 05:07:04;;;;;;;18.63;11.50;;;;;;;;;;5019330;28;20224;-76
2023/10/31 05:09:30;;;;;;;17.30;11.45;;;;;;;;;;5029163;28;20613;-75
2023/10/31 05:11:55;;;;;;;15.95;11.20;;;;;;;;;;5024193;28;20218;-72
2023/10/31 05:14:20;;;;;;;14.77;10.73;;;;;;;;;;5018539;28;20220;-73
2023/10/31 05:16:46;;;;;;;19.60;11.48;;;;;;;;;;5032495;28;20715;-74
2023/10/31 05:19:12;;;;;;;17.20;11.20;;;;;;;;;;5027633;28;20200;-74
2023/10/31 05:21:37;;;;;;;17.85;10.93;;;;;;;;;;5025589;28;20680;-73
2023/10/31 05:24:04;;;;;;;15.48;10.80;;;;;;;;;;5027104;28;20292;-74
2023/10/31 05:26:30;;;;;;;16.27;11.25;;;;;;;;;;5021420;28;20289;-73
2023/10/31 05:28:57;;;;;;;15.25;10.88;;;;;;;;;;5031517;28;20217;-71
2023/10/31 05:31:23;;;;;;;16.98;10.90;;;;;;;;;;5032204;28;20323;-73
2023/10/31 05:33:48;;;;;;;15.27;10.40;;;;;;;;;;5027060;28;20194;-73
2023/10/31 05:36:21;;;;;;;17.55;10.63;;;;;;;;;;5018345;28;20194;-73
2023/10/31 05:38:47;;;;;;;14.23;10.07;;;;;;;;;;5007242;28;20181;-73
2023/10/31 05:41:14;;;;;;;16.45;10.48;;;;;;;;;;5023353;28;20262;-73
2023/10/31 05:43:39;;;;;;;16.77;10.40;;;;;;;;;;5015905;28;20669;-72
2023/10/31 05:46:04;;;;;;;16.40;10.05;;;;;;;;;;5020312;28;20249;-73
2023/10/31 05:48:31;;;;;;;15.45;9.95;;;;;;;;;;5028041;28;20194;-74
2023/10/31 05:50:56;;;;;;;14.23;9.50;;;;;;;;;;5026507;28;20568;-74
2023/10/31 05:53:22;;;;;;;13.93;9.77;;;;;;;;;;5019810;28;20269;-72
2023/10/31 05:55:47;;;;;;;12.82;9.68;;;;;;;;;;5028990;28;20980;-72
2023/10/31 05:58:12;;;;;;;14.90;9.23;;;;;;;;;;5027503;28;20258;-72
2023/10/31 06:00:38;;;;;;;14.55;8.60;;;;;;;;;;5028115;28;20256;-72
2023/10/31 06:03:03;;;;;;;11.95;8.18;;;;;;;;;;5026197;28;20186;-72
2023/10/31 06:05:28;;;;;;;11.98;7.32;;;;;;;;;;5042713;28;20186;-72
2023/10/31 06:07:54;;;;;;;12.40;7.18;;;;;;;;;;5027046;28;20565;-72
2023/10/31 06:10:21;;;;;;;12.63;7.95;;;;;;;;;;5041067;28;20209;-72
2023/10/31 06:12:46;;;;;;;9.45;6.60;;;;;;;;;;5021960;28;20520;-72
2023/10/31 06:15:12;;;;;;;9.80;6.57;;;;;;;;;;5017949;28;20744;-72
2023/10/31 06:17:37;;;;;;;8.95;5.78;;;;;;;;;;5017170;28;20227;-72
2023/10/31 06:20:03;;;;;;;10.18;5.70;;;;;;;;;;5021960;28;20277;-71
2023/10/31 06:22:28;;;;;;;11.32;6.07;;;;;;;;;;5026120;28;20257;-71
2023/10/31 06:24:54;;;;;;;8.82;6.03;;;;;;;;;;5022123;28;20210;-71
2023/10/31 06:27:19;;;;;;;9.13;6.20;;;;;;;;;;5034503;28;20226;-72
2023/10/31 06:29:45;;;;;;;11.02;6.28;;;;;;;;;;5010776;28;20202;-71
2023/10/31 06:32:10;;;;;;;9.40;6.00;;;;;;;;;;5020093;28;20187;-71
2023/10/31 06:34:35;;;;;;;10.68;5.97;;;;;;;;;;5024452;28;20211;-70
2023/10/31 06:37:01;;;;;;;7.43;5.13;;;;;;;;;;5028803;28;20263;-71
2023/10/31 06:39:26;;;;;;;7.72;4.65;;;;;;;;;;5026313;28;20213;-70
2023/10/31 06:41:55;;;;;;;9.15;4.68;;;;;;;;;;5017901;28;20352;-71
2023/10/31 06:44:20;;;;;;;7.22;4.38;;;;;;;;;;5026445;28;20182;-71
2023/10/31 06:46:45;;;;;;;7.30;3.88;;;;;;;;;;5031047;28;20679;-70
2023/10/31 06:49:11;;;;;;;7.10;3.63;;;;;;;;;;5024553;28;20193;-71
2023/10/31 06:51:36;;;;;;;6.35;3.45;;;;;;;;;;5029529;28;20707;-70
2023/10/31 06:54:01;;;;;;;6.03;3.75;;;;;;;;;;5039239;28;20918;-69
2023/10/31 06:56:28;;;;;;;7.05;3.65;;;;;;;;;;5027192;28;20290;-69
2023/10/31 06:58:54;;;;;;;6.95;3.58;;;;;;;;;;5031144;28;20197;-70
2023/10/31 07:01:19;;;;;;;7.30;3.45;;;;;;;;;;5031733;28;20194;-70
2023/10/31 07:03:44;;;;;;;6.22;3.80;;;;;;;;;;5028314;28;20197;-70
2023/10/31 07:06:10;;;;;;;7.40;3.60;;;;;;;;;;5029327;28;20242;-70
2023/10/31 07:08:35;;;;;;;7.03;3.83;;;;;;;;;;5028400;28;20641;-69
2023/10/31 07:11:01;;;;;;;4.53;3.33;;;;;;;;;;5023788;28;20190;-70
2023/10/31 07:13:26;;;;;;;9.43;4.60;;;;;;;;;;5022983;28;20724;-70
2023/10/31 07:15:51;;;;;;;7.95;3.53;;;;;;;;;;5021411;28;20320;-70
2023/10/31 07:18:17;;;;;;;3.20;2.70;;;;;;;;;;5026156;28;20376;-71
2023/10/31 07:20:42;;;;;;;6.63;3.20;;;;;;;;;;5022996;28;20623;-69
2023/10/31 07:23:07;;;;;;;5.65;3.00;;;;;;;;;;5026409;28;20261;-70
2023/10/31 07:25:33;;;;;;;5.22;2.60;;;;;;;;;;5027218;28;20267;-70
2023/10/31 07:27:58;;;;;;;3.83;2.45;;;;;;;;;;5018203;28;20210;-69
2023/10/31 07:30:24;;;;;;;6.35;2.75;;;;;;;;;;5017942;28;20427;-68
2023/10/31 07:32:49;;;;;;;4.82;2.63;;;;;;;;;;5020789;28;20409;-69
2023/10/31 07:35:14;;;;;;;5.25;2.45;;;;;;;;;;5026551;28;20614;-69
2023/10/31 07:37:40;;;;;;;5.38;2.50;;;;;;;;;;5024453;28;20177;-69
2023/10/31 07:40:05;;;;;;;3.83;2.65;;;;;;;;;;5020694;28;20190;-68
2023/10/31 07:42:31;;;;;;;4.85;2.60;;;;;;;;;;5022037;28;20182;-70
2023/10/31 07:44:56;;;;;;;5.15;2.53;;;;;;;;;;5025557;28;20195;-70
2023/10/31 07:47:22;;;;;;;6.97;2.65;;;;;;;;;;5030143;28;20545;-70
2023/10/31 07:49:48;;;;;;;4.57;2.78;;;;;;;;;;5030719;28;20200;-69
2023/10/31 07:52:14;;;;;;;5.85;2.47;;;;;;;;;;5020829;28;20202;-69
2023/10/31 07:54:42;;;;;;;5.55;2.75;;;;;;;;;;5027955;28;20198;-68
2023/10/31 07:57:08;;;;;;;7.95;2.85;;;;;;;;;;5016330;28;20201;-70
2023/10/31 07:59:34;;;;;;;4.00;2.50;;;;;;;;;;5016456;28;20186;-69
2023/10/31 08:02:00;;;;;;;7.97;2.97;;;;;;;;;;5025904;28;20495;-69
2023/10/31 08:04:25;;;;;;;4.45;2.95;;;;;;;;;;5024260;28;20285;-70
2023/10/31 08:06:50;;;;;;;12.73;3.00;;;;;;;;;;5025447;28;20607;-69
2023/10/31 08:09:16;;;;;;;4.57;2.85;;;;;;;;;;5023735;28;20193;-69
2023/10/31 08:11:41;;;;;;;5.20;3.10;;;;;;;;;;5028918;28;20641;-70
2023/10/31 08:14:07;;;;;;;7.63;3.15;;;;;;;;;;5030899;28;20202;-69
2023/10/31 08:16:32;;;;;;;4.65;2.88;;;;;;;;;;5025413;28;20248;-69
2023/10/31 08:18:58;;;;;;;5.22;3.10;;;;;;;;;;5025709;28;20205;-69
2023/10/31 08:21:23;;;;;;;5.60;3.15;;;;;;;;;;5022351;28;20206;-69
2023/10/31 08:23:48;;;;;;;3.55;2.65;;;;;;;;;;5020946;28;20209;-68
2023/10/31 08:26:14;;;;;;;7.75;3.60;;;;;;;;;;5028982;28;20202;-69
2023/10/31 08:28:40;;;;;;;4.82;2.95;;;;;;;;;;5030241;28;20197;-69
2023/10/31 08:31:06;;;;;;;6.70;3.15;;;;;;;;;;5020691;28;20190;-68
2023/10/31 08:33:31;;;;;;;4.20;2.97;;;;;;;;;;5036528;28;20521;-69
2023/10/31 08:35:57;;;;;;;4.50;2.90;;;;;;;;;;5029344;28;20622;-68
2023/10/31 08:38:22;;;;;;;5.65;3.30;;;;;;;;;;5034585;28;20212;-69
2023/10/31 08:40:48;;;;;;;5.40;3.25;;;;;;;;;;5028677;28;20194;-69
2023/10/31 08:43:14;;;;;;;5.70;3.05;;;;;;;;;;5028490;28;20186;-69
2023/10/31 08:45:39;;;;;;;6.03;3.38;;;;;;;;;;5036341;28;20272;-68
2023/10/31 08:48:05;;;;;;;7.00;3.72;;;;;;;;;;5036065;28;20201;-68
2023/10/31 08:50:30;;;;;;;7.35;3.85;;;;;;;;;;5030005;28;20399;-69
2023/10/31 08:52:56;;;;;;;10.40;4.03;;;;;;;;;;5044863;28;20239;-68
2023/10/31 08:55:21;;;;;;;6.18;3.75;;;;;;;;;;5046267;28;20212;-69
2023/10/31 08:57:47;;;;;;;7.63;4.78;;;;;;;;;;5025490;28;20219;-68
2023/10/31 09:00:13;;;;;;;6.25;4.53;;;;;;;;;;5023571;28;20580;-70
2023/10/31 09:02:38;;;;;;;10.32;4.75;;;;;;;;;;5037673;28;20265;-68
2023/10/31 09:05:04;;;;;;;7.28;5.03;;;;;;;;;;5029513;28;20208;-69
2023/10/31 09:07:29;;;;;;;7.07;5.00;;;;;;;;;;5030167;28;20230;-68
2023/10/31 09:09:54;;;;;;;9.25;6.25;;;;;;;;;;5024331;28;20685;-69
2023/10/31 09:12:20;;;;;;;6.72;5.07;;;;;;;;;;5027403;28;20186;-68
2023/10/31 09:14:46;;;;;;;9.30;5.47;;;;;;;;;;5013986;28;20213;-68
2023/10/31 09:17:11;;;;;;;8.95;5.57;;;;;;;;;;5024151;28;20222;-69
2023/10/31 09:19:37;;;;;;;8.90;5.65;;;;;;;;;;5021963;28;20533;-70
2023/10/31 09:22:03;;;;;;;8.93;5.63;;;;;;;;;;5031015;28;20189;-69
2023/10/31 09:24:28;;;;;;;7.95;5.40;;;;;;;;;;5028555;28;20277;-70
2023/10/31 09:26:53;;;;;;;6.95;5.85;;;;;;;;;;5023630;28;20284;-68
2023/10/31 09:29:19;;;;;;;7.50;5.43;;;;;;;;;;5028599;28;20251;-69
2023/10/31 09:31:44;;;;;;;8.70;5.38;;;;;;;;;;5023734;28;20198;-69
2023/10/31 09:34:09;;;;;;;5.95;5.18;;;;;;;;;;5028723;28;20489;-68
2023/10/31 09:36:35;;;;;;;7.53;4.97;;;;;;;;;;5032610;28;20280;-68
2023/10/31 09:39:00;;;;;;;8.30;4.90;;;;;;;;;;5025653;28;20182;-69
2023/10/31 09:41:27;;;;;;;6.15;4.82;;;;;;;;;;5029369;28;20194;-70
2023/10/31 09:43:53;;;;;;;6.60;4.55;;;;;;;;;;5023833;28;20718;-70
2023/10/31 09:46:18;;;;;;;9.15;5.10;;;;;;;;;;5033477;28;20281;-70
2023/10/31 09:48:43;;;;;;;6.40;4.53;;;;;;;;;;5030123;28;20644;-70
2023/10/31 09:51:11;;;;;;;7.55;4.80;;;;;;;;;;5030077;28;20193;-70
2023/10/31 09:53:40;;;;;;;7.70;4.20;;;;;;;;;;5028062;28;20576;-69
2023/10/31 09:56:07;;;;;;;4.75;3.72;;;;;;;;;;5030760;28;20549;-69
2023/10/31 09:58:33;;;;;;;7.82;3.92;;;;;;;;;;5031932;28;20290;-70
2023/10/31 10:00:58;;;;;;;4.80;3.55;;;;;;;;;;5032855;28;20257;-69
2023/10/31 10:03:24;;;;;;;4.80;3.33;;;;;;;;;;5032051;28;20312;-69
2023/10/31 10:05:49;;;;;;;5.68;3.20;;;;;;;;;;5029899;28;22162;-70
2023/10/31 10:08:16;;;;;;;5.72;3.15;;;;;;;;;;5027582;28;20392;-69
2023/10/31 10:10:41;;;;;;;7.25;3.00;;;;;;;;;;5031820;28;20192;-69
2023/10/31 10:13:07;;;;;;;5.90;2.95;;;;;;;;;;5028863;28;20273;-71
2023/10/31 10:15:52;;;;;;;3.90;2.60;;;;;;;;;;5036053;28;20245;-69
2023/10/31 10:18:32;;;;;;;5.25;2.83;;;;;;;;;;5031662;28;20205;-69
2023/10/31 10:21:00;;;;;;;4.35;2.92;;;;;;;;;;5033250;28;20676;-69
2023/10/31 10:23:26;;;;;;;5.97;2.53;;;;;;;;;;5032888;28;20281;-69
2023/10/31 10:25:53;;;;;;;7.80;2.80;;;;;;;;;;5029597;28;20232;-69
2023/10/31 10:28:19;;;;;;;9.50;2.78;;;;;;;;;;5023610;28;20183;-69
2023/10/31 10:30:48;;;;;;;5.15;1.95;;;;;;;;;;5031122;28;20233;-69
2023/10/31 10:33:17;;;;;;;6.28;1.90;;;;;;;;;;5035910;28;20251;-69
2023/10/31 10:35:43;;;;;;;3.38;1.98;;;;;;;;;;5031558;28;20240;-69
2023/10/31 10:38:15;;;;;;;5.78;2.40;;;;;;;;;;5031244;28;20595;-68
2023/10/31 10:40:44;;;;;;;4.35;2.30;;;;;;;;;;5031280;28;20685;-68
2023/10/31 10:43:19;;;;;;;4.43;2.45;;;;;;;;;;5035686;28;20273;-69
2023/10/31 10:45:44;;;;;;;8.60;1.88;;;;;;;;;;5030794;28;20201;-68
2023/10/31 10:48:15;;;;;;;5.65;1.50;;;;;;;;;;5032245;28;20193;-68
2023/10/31 10:50:45;;;;;;;4.57;1.20;;;;;;;;;;5032670;28;20595;-69
2023/10/31 10:53:22;;;;;;;6.63;1.50;;;;;;;;;;5043044;28;20700;-68
2023/10/31 10:55:52;;;;;;;5.57;1.92;;;;;;;;;;5029825;28;20297;-68
2023/10/31 10:58:24;;;;;;;4.28;1.77;;;;;;;;;;5032108;28;20190;-68
2023/10/31 11:00:50;;;;;;;4.50;1.30;;;;;;;;;;5031066;28;20221;-68
2023/10/31 11:03:18;;;;;;;4.57;1.00;;;;;;;;;;5030267;28;20212;-68
2023/10/31 11:05:44;;;;;;;4.30;1.05;;;;;;;;;;5031483;28;20198;-69
2023/10/31 11:08:10;;;;;;;6.45;2.08;;;;;;;;;;5029794;28;20509;-68
2023/10/31 11:10:36;;;;;;;2.67;0.90;;;;;;;;;;5027764;28;20194;-68
2023/10/31 11:13:01;;;;;;;5.45;1.40;;;;;;;;;;5019551;28;20209;-67
2023/10/31 11:15:27;;;;;;;8.90;1.10;;;;;;;;;;5029925;28;20229;-70
2023/10/31 11:17:55;;;;;;;6.35;0.90;;;;;;;;;;5031341;28;20634;-69
2023/10/31 11:20:20;;;;;;;4.30;0.82;;;;;;;;;;5040504;28;20240;-69
2023/10/31 11:22:49;;;;;;;6.82;1.00;;;;;;;;;;5024191;28;20622;-68
2023/10/31 11:25:20;;;;;;;4.88;0.95;;;;;;;;;;5027686;28;20190;-68
2023/10/31 11:27:45;;;;;;;2.42;0.80;;;;;;;;;;5030549;28;20574;-69
2023/10/31 11:30:28;;;;;;;5.35;1.00;;;;;;;;;;5029676;28;20186;-68
2023/10/31 11:33:01;;;;;;;3.83;0.70;;;;;;;;;;5021084;28;20266;-68
2023/10/31 11:35:29;;;;;;;3.83;1.15;;;;;;;;;;5037441;28;20181;-69
2023/10/31 11:38:06;;;;;;;2.45;0.80;;;;;;;;;;5019075;28;20202;-67
2023/10/31 11:40:32;;;;;;;5.00;0.88;;;;;;;;;;5025796;28;20185;-68
2023/10/31 11:42:59;;;;;;;1.90;0.57;;;;;;;;;;5011038;28;20186;-68
2023/10/31 11:45:29;;;;;;;2.00;0.70;;;;;;;;;;5038366;28;20192;-69
2023/10/31 11:47:55;;;;;;;4.85;0.80;;;;;;;;;;5029877;28;20604;-68
2023/10/31 11:50:21;;;;;;;5.00;0.82;;;;;;;;;;5036440;28;20199;-69
2023/10/31 11:53:08;;;;;;;3.85;0.75;;;;;;;;;;5018784;28;20571;-68
2023/10/31 11:55:35;;;;;;;7.75;1.10;;;;;;;;;;5029724;28;20211;-70
2023/10/31 11:58:21;;;;;;;2.78;0.90;;;;;;;;;;5027019;28;20489;-69
2023/10/31 12:00:49;;;;;;;8.88;0.95;;;;;;;;;;5023693;28;20547;-70
2023/10/31 12:03:17;;;;;;;4.40;0.95;;;;;;;;;;5029578;28;20782;-69
2023/10/31 12:05:58;;;;;;;5.70;1.10;;;;;;;;;;5027398;28;20195;-69
2023/10/31 12:08:25;;;;;;;5.63;0.90;;;;;;;;;;5027260;28;20259;-69
2023/10/31 12:10:50;;;;;;;4.35;1.10;;;;;;;;;;5037741;28;20624;-70
2023/10/31 12:13:16;;;;;;;2.38;0.82;;;;;;;;;;5031401;28;20269;-70
2023/10/31 12:15:52;;;;;;;8.48;1.10;;;;;;;;;;5030663;28;20548;-70
2023/10/31 12:18:18;;;;;;;4.97;0.88;;;;;;;;;;5025024;28;20197;-69
2023/10/31 12:20:50;;;;;;;3.83;1.00;;;;;;;;;;5038693;28;20234;-68
2023/10/31 12:23:17;;;;;;;6.03;0.90;;;;;;;;;;5017288;28;20199;-69
2023/10/31 12:25:49;;;;;;;4.25;1.00;;;;;;;;;;5033715;28;20189;-69
2023/10/31 12:28:22;;;;;;;6.85;1.08;;;;;;;;;;5023782;28;20191;-68
2023/10/31 12:30:49;;;;;;;6.93;1.35;;;;;;;;;;5029075;28;20722;-69
2023/10/31 12:33:15;;;;;;;5.50;0.90;;;;;;;;;;5027289;28;20277;-69
2023/10/31 12:35:42;;;;;;;1.27;0.57;;;;;;;;;;5032365;28;20190;-69
2023/10/31 12:38:10;;;;;;;3.85;0.73;;;;;;;;;;5029026;28;20182;-69
2023/10/31 12:40:37;;;;;;;2.42;0.50;;;;;;;;;;5015832;28;20651;-68
2023/10/31 12:43:03;;;;;;;5.00;1.05;;;;;;;;;;5021693;28;20651;-68
2023/10/31 12:45:28;;;;;;;4.97;0.85;;;;;;;;;;5024186;28;20552;-69
2023/10/31 12:48:04;;;;;;;4.10;0.90;;;;;;;;;;5022628;28;20207;-70
2023/10/31 12:50:31;;;;;;;4.75;1.08;;;;;;;;;;5031924;28;20276;-73
2023/10/31 12:52:59;;;;;;;4.97;0.93;;;;;;;;;;5018000;28;20190;-72
2023/10/31 12:55:27;;;;;;;4.03;0.80;;;;;;;;;;5027241;28;20551;-72
2023/10/31 12:57:53;;;;;;;4.20;1.10;;;;;;;;;;5021078;28;20585;-72
2023/10/31 13:00:26;;;;;;;3.45;1.10;;;;;;;;;;5029098;28;20833;-72
2023/10/31 13:02:58;;;;;;;5.00;0.98;;;;;;;;;;5026084;28;20186;-72
2023/10/31 13:05:25;;;;;;;2.42;0.82;;;;;;;;;;5017796;28;20529;-72
2023/10/31 13:07:52;;;;;;;4.40;1.05;;;;;;;;;;5027379;28;20283;-71
2023/10/31 13:10:24;;;;;;;5.65;1.27;;;;;;;;;;5047095;28;20586;-71
2023/10/31 13:12:51;;;;;;;4.05;0.90;;;;;;;;;;5029182;28;20190;-71
2023/10/31 13:15:18;;;;;;;4.82;0.95;;;;;;;;;;5042663;28;20214;-71
2023/10/31 13:17:44;;;;;;;3.97;1.10;;;;;;;;;;5040033;28;20186;-70
2023/10/31 13:20:14;;;;;;;4.88;0.98;;;;;;;;;;5044065;28;20212;-71
2023/10/31 13:22:40;;;;;;;6.05;0.80;;;;;;;;;;5028026;28;20182;-71
2023/10/31 13:25:09;;;;;;;8.55;1.70;;;;;;;;;;5027417;28;20194;-70
2023/10/31 13:27:35;;;;;;;4.88;0.90;;;;;;;;;;5027314;28;20636;-70
2023/10/31 13:30:01;;;;;;;4.75;1.20;;;;;;;;;;5021696;28;20273;-70
2023/10/31 13:32:27;;;;;;;4.18;1.10;;;;;;;;;;5016790;28;20181;-69
2023/10/31 13:34:52;;;;;;;5.82;1.33;;;;;;;;;;5021485;28;20196;-69
2023/10/31 13:37:18;;;;;;;5.97;2.40;;;;;;;;;;5025482;28;20182;-69
2023/10/31 13:39:43;;;;;;;4.13;1.90;;;;;;;;;;5030193;28;20194;-69
2023/10/31 13:42:10;;;;;;;5.60;2.30;;;;;;;;;;5032488;28;20188;-69
2023/10/31 13:44:38;;;;;;;4.07;1.48;;;;;;;;;;5030296;28;20212;-69
2023/10/31 13:47:03;;;;;;;5.30;1.27;;;;;;;;;;5025826;28;20215;-69
2023/10/31 13:49:29;;;;;;;6.32;1.00;;;;;;;;;;5029094;28;20193;-69
2023/10/31 13:51:54;;;;;;;3.90;0.90;;;;;;;;;;5031684;28;20606;-69
2023/10/31 13:54:20;;;;;;;4.60;1.00;;;;;;;;;;5030097;28;20194;-69
2023/10/31 13:56:47;;;;;;;4.13;0.98;;;;;;;;;;5028971;28;20193;-69
2023/10/31 13:59:12;;;;;;;5.60;1.02;;;;;;;;;;5023997;28;20202;-69
2023/10/31 14:01:38;;;;;;;10.10;1.67;;;;;;;;;;5030429;28;20193;-69
2023/10/31 14:04:03;;;;;;;7.55;1.33;;;;;;;;;;5024823;28;20710;-69
2023/10/31 14:06:32;;;;;;;6.45;1.00;;;;;;;;;;5027783;28;20217;-70
2023/10/31 14:08:58;;;;;;;2.45;0.47;;;;;;;;;;5019507;28;20187;-69
2023/10/31 14:11:23;;;;;;;2.65;0.70;;;;;;;;;;5032042;28;20189;-70
2023/10/31 14:13:50;;;;;;;1.50;0.50;;;;;;;;;;5027075;28;20194;-69
2023/10/31 14:16:16;;;;;;;3.72;0.70;;;;;;;;;;5029125;28;20338;-69
2023/10/31 14:18:42;;;;;;;1.75;0.70;;;;;;;;;;5033351;28;20286;-69
2023/10/31 14:21:08;;;;;;;2.78;0.93;;;;;;;;;;5024057;28;20617;-69
2023/10/31 14:23:33;;;;;;;6.28;0.80;;;;;;;;;;5024929;28;20190;-69
2023/10/31 14:25:59;;;;;;;1.50;0.85;;;;;;;;;;5033970;28;20260;-69
2023/10/31 14:28:24;;;;;;;1.27;0.77;;;;;;;;;;5029807;28;20190;-68
2023/10/31 14:30:52;;;;;;;2.08;0.80;;;;;;;;;;5031291;28;20216;-68